sensor_id;sensor_type;location;lat;lon;timestamp;P1;durP1;ratioP1;P2;durP2;ratioP2
938;SDS011;456;53.584;9.968;2022-12-18T00:01:20;8.10;;;7.40;;
938;SDS011;456;53.584;9.968;2022-12-18T00:03:51;7.67;;;7.07;;
938;SDS011;456;53.584;9.968;2022-12-18T00:06:18;8.40;;;7.70;;
938;SDS011;456;53.584;9.968;2022-12-18T00:08:45;8.40;;;7.60;;
938;SDS011;456;53.584;9.968;2022-12-18T00:11:12;7.40;;;6.90;;
938;SDS011;456;53.584;9.968;2022-12-18T00:13:40;8.90;;;8.10;;
938;SDS011;456;53.584;9.968;2022-12-18T00:16:07;8.53;;;7.83;;
938;SDS011;456;53.584;9.968;2022-12-18T00:18:35;7.70;;;7.00;;
938;SDS011;456;53.584;9.968;2022-12-18T00:21:02;8.03;;;7.43;;
938;SDS011;456;53.584;9.968;2022-12-18T00:23:29;7.93;;;7.23;;
938;SDS011;456;53.584;9.968;2022-12-18T00:25:59;7.60;;;6.90;;
938;SDS011;456;53.584;9.968;2022-12-18T00:28:29;7.83;;;7.20;;
938;SDS011;456;53.584;9.968;2022-12-18T00:31:01;7.63;;;6.93;;
938;SDS011;456;53.584;9.968;2022-12-18T00:33:28;8.90;;;8.10;;
938;SDS011;456;53.584;9.968;2022-12-18T00:35:54;8.87;;;8.17;;
938;SDS011;456;53.584;9.968;2022-12-18T00:38:19;8.30;;;7.60;;
938;SDS011;456;53.584;9.968;2022-12-18T00:40:45;8.27;;;7.53;;
938;SDS011;456;53.584;9.968;2022-12-18T00:43:10;7.50;;;6.80;;
938;SDS011;456;53.584;9.968;2022-12-18T00:45:36;7.67;;;6.97;;
938;SDS011;456;53.584;9.968;2022-12-18T00:48:02;8.17;;;7.37;;
938;SDS011;456;53.584;9.968;2022-12-18T00:50:27;8.43;;;7.63;;
938;SDS011;456;53.584;9.968;2022-12-18T00:52:53;8.30;;;7.60;;
938;SDS011;456;53.584;9.968;2022-12-18T00:55:18;8.17;;;7.47;;
938;SDS011;456;53.584;9.968;2022-12-18T00:57:44;8.10;;;7.43;;
938;SDS011;456;53.584;9.968;2022-12-18T01:00:11;8.40;;;7.20;;
938;SDS011;456;53.584;9.968;2022-12-18T01:02:39;8.00;;;7.40;;
938;SDS011;456;53.584;9.968;2022-12-18T01:05:05;8.30;;;7.60;;
938;SDS011;456;53.584;9.968;2022-12-18T01:07:31;8.17;;;7.47;;
938;SDS011;456;53.584;9.968;2022-12-18T01:09:59;7.83;;;7.23;;
938;SDS011;456;53.584;9.968;2022-12-18T01:12:25;7.93;;;7.23;;
938;SDS011;456;53.584;9.968;2022-12-18T01:14:50;7.87;;;7.17;;
938;SDS011;456;53.584;9.968;2022-12-18T01:17:16;7.83;;;7.17;;
938;SDS011;456;53.584;9.968;2022-12-18T01:19:42;7.87;;;7.17;;
938;SDS011;456;53.584;9.968;2022-12-18T01:22:07;7.97;;;7.27;;
938;SDS011;456;53.584;9.968;2022-12-18T01:24:33;7.27;;;6.77;;
938;SDS011;456;53.584;9.968;2022-12-18T01:26:58;7.73;;;7.03;;
938;SDS011;456;53.584;9.968;2022-12-18T01:29:24;8.57;;;7.77;;
938;SDS011;456;53.584;9.968;2022-12-18T01:31:49;7.90;;;7.20;;
938;SDS011;456;53.584;9.968;2022-12-18T01:34:15;6.70;;;6.20;;
938;SDS011;456;53.584;9.968;2022-12-18T01:36:40;7.27;;;6.67;;
938;SDS011;456;53.584;9.968;2022-12-18T01:39:07;7.40;;;6.60;;
938;SDS011;456;53.584;9.968;2022-12-18T01:41:37;8.10;;;7.40;;
938;SDS011;456;53.584;9.968;2022-12-18T01:47:23;7.80;;;7.10;;
938;SDS011;456;53.584;9.968;2022-12-18T01:49:50;7.40;;;6.80;;
938;SDS011;456;53.584;9.968;2022-12-18T01:52:16;7.80;;;7.10;;
938;SDS011;456;53.584;9.968;2022-12-18T01:54:42;8.10;;;7.40;;
938;SDS011;456;53.584;9.968;2022-12-18T01:57:09;7.30;;;6.70;;
938;SDS011;456;53.584;9.968;2022-12-18T01:59:34;7.30;;;6.57;;
938;SDS011;456;53.584;9.968;2022-12-18T02:02:01;7.87;;;7.17;;
938;SDS011;456;53.584;9.968;2022-12-18T02:04:27;7.50;;;6.90;;
938;SDS011;456;53.584;9.968;2022-12-18T02:07:02;7.10;;;6.40;;
938;SDS011;456;53.584;9.968;2022-12-18T02:09:36;8.27;;;7.47;;
938;SDS011;456;53.584;9.968;2022-12-18T02:12:14;6.77;;;6.13;;
938;SDS011;456;53.584;9.968;2022-12-18T02:14:45;7.83;;;7.03;;
938;SDS011;456;53.584;9.968;2022-12-18T02:25:53;7.13;;;6.53;;
938;SDS011;456;53.584;9.968;2022-12-18T02:28:42;6.50;;;5.97;;
938;SDS011;456;53.584;9.968;2022-12-18T02:31:21;7.13;;;6.43;;
938;SDS011;456;53.584;9.968;2022-12-18T02:33:50;7.23;;;6.63;;
938;SDS011;456;53.584;9.968;2022-12-18T02:36:19;8.10;;;7.40;;
938;SDS011;456;53.584;9.968;2022-12-18T02:38:47;7.10;;;6.37;;
938;SDS011;456;53.584;9.968;2022-12-18T02:41:15;7.20;;;6.60;;
938;SDS011;456;53.584;9.968;2022-12-18T02:43:46;7.10;;;6.40;;
938;SDS011;456;53.584;9.968;2022-12-18T02:49:26;7.37;;;6.77;;
938;SDS011;456;53.584;9.968;2022-12-18T02:54:34;6.40;;;5.83;;
938;SDS011;456;53.584;9.968;2022-12-18T03:00:04;7.47;;;6.70;;
938;SDS011;456;53.584;9.968;2022-12-18T03:02:57;6.07;;;5.63;;
938;SDS011;456;53.584;9.968;2022-12-18T03:05:31;7.33;;;6.63;;
938;SDS011;456;53.584;9.968;2022-12-18T03:08:36;6.90;;;6.30;;
938;SDS011;456;53.584;9.968;2022-12-18T03:11:07;6.50;;;6.00;;
938;SDS011;456;53.584;9.968;2022-12-18T03:13:39;6.67;;;6.17;;
938;SDS011;456;53.584;9.968;2022-12-18T03:16:10;6.87;;;6.27;;
938;SDS011;456;53.584;9.968;2022-12-18T03:18:45;7.33;;;6.63;;
938;SDS011;456;53.584;9.968;2022-12-18T03:21:15;6.60;;;6.00;;
938;SDS011;456;53.584;9.968;2022-12-18T03:23:46;7.27;;;6.57;;
938;SDS011;456;53.584;9.968;2022-12-18T03:26:15;6.43;;;5.83;;
938;SDS011;456;53.584;9.968;2022-12-18T03:28:45;6.53;;;6.03;;
938;SDS011;456;53.584;9.968;2022-12-18T03:31:16;6.10;;;5.50;;
938;SDS011;456;53.584;9.968;2022-12-18T03:33:46;7.73;;;7.03;;
938;SDS011;456;53.584;9.968;2022-12-18T03:36:17;6.03;;;5.47;;
938;SDS011;456;53.584;9.968;2022-12-18T03:38:42;6.80;;;6.20;;
938;SDS011;456;53.584;9.968;2022-12-18T03:52:53;7.07;;;6.37;;
938;SDS011;456;53.584;9.968;2022-12-18T03:55:25;6.87;;;6.27;;
938;SDS011;456;53.584;9.968;2022-12-18T03:57:55;6.40;;;5.70;;
938;SDS011;456;53.584;9.968;2022-12-18T04:00:22;6.70;;;6.10;;
938;SDS011;456;53.584;9.968;2022-12-18T04:02:49;6.80;;;6.20;;
938;SDS011;456;53.584;9.968;2022-12-18T04:05:18;6.50;;;5.90;;
938;SDS011;456;53.584;9.968;2022-12-18T04:07:45;6.30;;;5.80;;
938;SDS011;456;53.584;9.968;2022-12-18T04:10:14;6.07;;;5.57;;
938;SDS011;456;53.584;9.968;2022-12-18T04:12:41;6.30;;;5.70;;
938;SDS011;456;53.584;9.968;2022-12-18T04:15:07;6.53;;;5.93;;
938;SDS011;456;53.584;9.968;2022-12-18T04:17:33;6.00;;;5.50;;
938;SDS011;456;53.584;9.968;2022-12-18T04:19:59;6.57;;;5.80;;
938;SDS011;456;53.584;9.968;2022-12-18T04:22:24;6.67;;;6.10;;
938;SDS011;456;53.584;9.968;2022-12-18T04:24:50;6.67;;;5.97;;
938;SDS011;456;53.584;9.968;2022-12-18T04:27:16;6.60;;;6.00;;
938;SDS011;456;53.584;9.968;2022-12-18T04:29:41;5.80;;;5.40;;
938;SDS011;456;53.584;9.968;2022-12-18T04:32:07;6.00;;;5.07;;
938;SDS011;456;53.584;9.968;2022-12-18T04:34:33;6.93;;;6.37;;
938;SDS011;456;53.584;9.968;2022-12-18T04:36:58;6.10;;;5.50;;
938;SDS011;456;53.584;9.968;2022-12-18T04:39:24;6.17;;;5.67;;
938;SDS011;456;53.584;9.968;2022-12-18T04:41:50;6.60;;;6.00;;
938;SDS011;456;53.584;9.968;2022-12-18T04:44:15;6.67;;;6.07;;
938;SDS011;456;53.584;9.968;2022-12-18T04:46:41;6.33;;;5.83;;
938;SDS011;456;53.584;9.968;2022-12-18T04:49:07;5.63;;;5.13;;
938;SDS011;456;53.584;9.968;2022-12-18T04:51:32;6.33;;;5.70;;
938;SDS011;456;53.584;9.968;2022-12-18T04:53:58;6.00;;;5.40;;
938;SDS011;456;53.584;9.968;2022-12-18T04:56:23;6.73;;;6.13;;
938;SDS011;456;53.584;9.968;2022-12-18T04:58:49;5.97;;;5.47;;
938;SDS011;456;53.584;9.968;2022-12-18T05:01:15;6.43;;;5.60;;
938;SDS011;456;53.584;9.968;2022-12-18T05:03:42;6.13;;;5.63;;
938;SDS011;456;53.584;9.968;2022-12-18T05:06:08;5.80;;;5.30;;
938;SDS011;456;53.584;9.968;2022-12-18T05:08:34;6.83;;;6.23;;
938;SDS011;456;53.584;9.968;2022-12-18T05:11:00;7.10;;;6.40;;
938;SDS011;456;53.584;9.968;2022-12-18T05:13:27;5.93;;;5.43;;
938;SDS011;456;53.584;9.968;2022-12-18T05:15:53;6.37;;;5.77;;
938;SDS011;456;53.584;9.968;2022-12-18T05:18:19;6.43;;;5.83;;
938;SDS011;456;53.584;9.968;2022-12-18T05:20:45;5.23;;;4.83;;
938;SDS011;456;53.584;9.968;2022-12-18T05:23:11;6.70;;;6.10;;
938;SDS011;456;53.584;9.968;2022-12-18T05:25:36;6.63;;;5.73;;
938;SDS011;456;53.584;9.968;2022-12-18T05:28:02;7.40;;;6.43;;
938;SDS011;456;53.584;9.968;2022-12-18T05:30:28;6.43;;;5.83;;
938;SDS011;456;53.584;9.968;2022-12-18T05:32:53;6.20;;;5.60;;
938;SDS011;456;53.584;9.968;2022-12-18T05:35:19;5.93;;;5.33;;
938;SDS011;456;53.584;9.968;2022-12-18T05:37:45;6.30;;;5.80;;
938;SDS011;456;53.584;9.968;2022-12-18T05:40:11;5.43;;;5.03;;
938;SDS011;456;53.584;9.968;2022-12-18T05:42:37;5.77;;;5.27;;
938;SDS011;456;53.584;9.968;2022-12-18T05:45:03;5.40;;;4.90;;
938;SDS011;456;53.584;9.968;2022-12-18T05:47:29;6.20;;;5.63;;
938;SDS011;456;53.584;9.968;2022-12-18T05:49:55;5.77;;;5.20;;
938;SDS011;456;53.584;9.968;2022-12-18T05:52:21;5.90;;;5.40;;
938;SDS011;456;53.584;9.968;2022-12-18T05:54:46;5.23;;;4.73;;
938;SDS011;456;53.584;9.968;2022-12-18T05:57:12;6.33;;;5.73;;
938;SDS011;456;53.584;9.968;2022-12-18T05:59:37;6.03;;;5.20;;
938;SDS011;456;53.584;9.968;2022-12-18T06:02:03;5.00;;;4.60;;
938;SDS011;456;53.584;9.968;2022-12-18T06:04:28;5.20;;;4.80;;
938;SDS011;456;53.584;9.968;2022-12-18T06:06:54;5.43;;;5.03;;
938;SDS011;456;53.584;9.968;2022-12-18T06:09:19;5.33;;;4.83;;
938;SDS011;456;53.584;9.968;2022-12-18T06:11:45;5.37;;;4.97;;
938;SDS011;456;53.584;9.968;2022-12-18T06:14:11;5.17;;;4.70;;
938;SDS011;456;53.584;9.968;2022-12-18T06:16:36;6.03;;;5.37;;
938;SDS011;456;53.584;9.968;2022-12-18T06:19:03;5.40;;;4.90;;
938;SDS011;456;53.584;9.968;2022-12-18T06:21:30;5.30;;;4.80;;
938;SDS011;456;53.584;9.968;2022-12-18T06:23:56;4.90;;;4.40;;
938;SDS011;456;53.584;9.968;2022-12-18T06:26:22;6.00;;;5.40;;
938;SDS011;456;53.584;9.968;2022-12-18T06:28:47;4.90;;;4.50;;
938;SDS011;456;53.584;9.968;2022-12-18T06:31:13;5.00;;;4.60;;
938;SDS011;456;53.584;9.968;2022-12-18T06:33:39;5.43;;;4.97;;
938;SDS011;456;53.584;9.968;2022-12-18T06:38:35;5.13;;;4.63;;
938;SDS011;456;53.584;9.968;2022-12-18T06:41:06;5.43;;;4.93;;
938;SDS011;456;53.584;9.968;2022-12-18T06:43:32;5.50;;;5.00;;
938;SDS011;456;53.584;9.968;2022-12-18T06:46:01;5.03;;;4.53;;
938;SDS011;456;53.584;9.968;2022-12-18T06:48:28;5.43;;;5.00;;
938;SDS011;456;53.584;9.968;2022-12-18T06:50:54;5.30;;;4.80;;
938;SDS011;456;53.584;9.968;2022-12-18T06:53:19;5.67;;;5.17;;
938;SDS011;456;53.584;9.968;2022-12-18T06:55:45;5.53;;;5.10;;
938;SDS011;456;53.584;9.968;2022-12-18T06:58:10;6.13;;;4.97;;
938;SDS011;456;53.584;9.968;2022-12-18T07:00:36;5.00;;;4.60;;
938;SDS011;456;53.584;9.968;2022-12-18T07:03:02;5.40;;;5.00;;
938;SDS011;456;53.584;9.968;2022-12-18T07:05:27;5.47;;;5.07;;
938;SDS011;456;53.584;9.968;2022-12-18T07:07:53;6.80;;;6.17;;
938;SDS011;456;53.584;9.968;2022-12-18T07:10:18;5.97;;;5.43;;
938;SDS011;456;53.584;9.968;2022-12-18T07:12:44;6.43;;;5.60;;
938;SDS011;456;53.584;9.968;2022-12-18T07:15:09;6.20;;;5.60;;
938;SDS011;456;53.584;9.968;2022-12-18T07:17:35;5.80;;;5.23;;
938;SDS011;456;53.584;9.968;2022-12-18T07:20:01;5.83;;;5.43;;
938;SDS011;456;53.584;9.968;2022-12-18T07:22:27;6.43;;;5.80;;
938;SDS011;456;53.584;9.968;2022-12-18T07:24:52;7.30;;;6.20;;
938;SDS011;456;53.584;9.968;2022-12-18T07:27:18;6.87;;;6.17;;
938;SDS011;456;53.584;9.968;2022-12-18T07:29:44;6.00;;;5.40;;
938;SDS011;456;53.584;9.968;2022-12-18T07:32:09;6.17;;;5.60;;
938;SDS011;456;53.584;9.968;2022-12-18T07:34:35;5.90;;;5.40;;
938;SDS011;456;53.584;9.968;2022-12-18T07:37:00;6.23;;;5.70;;
938;SDS011;456;53.584;9.968;2022-12-18T07:39:26;6.23;;;5.73;;
938;SDS011;456;53.584;9.968;2022-12-18T07:41:52;6.27;;;5.67;;
938;SDS011;456;53.584;9.968;2022-12-18T07:44:36;6.73;;;6.10;;
938;SDS011;456;53.584;9.968;2022-12-18T07:47:02;5.87;;;5.37;;
938;SDS011;456;53.584;9.968;2022-12-18T07:49:28;6.40;;;5.80;;
938;SDS011;456;53.584;9.968;2022-12-18T07:51:54;7.07;;;6.43;;
938;SDS011;456;53.584;9.968;2022-12-18T07:54:21;6.83;;;6.33;;
938;SDS011;456;53.584;9.968;2022-12-18T07:56:47;6.10;;;5.50;;
938;SDS011;456;53.584;9.968;2022-12-18T07:59:13;6.10;;;5.57;;
938;SDS011;456;53.584;9.968;2022-12-18T08:01:39;5.80;;;5.30;;
938;SDS011;456;53.584;9.968;2022-12-18T08:04:04;6.80;;;6.07;;
938;SDS011;456;53.584;9.968;2022-12-18T08:06:30;5.77;;;5.27;;
938;SDS011;456;53.584;9.968;2022-12-18T08:08:56;6.20;;;5.70;;
938;SDS011;456;53.584;9.968;2022-12-18T08:11:22;6.67;;;6.00;;
938;SDS011;456;53.584;9.968;2022-12-18T08:13:49;5.83;;;5.33;;
938;SDS011;456;53.584;9.968;2022-12-18T08:16:15;5.93;;;5.40;;
938;SDS011;456;53.584;9.968;2022-12-18T08:18:41;6.40;;;5.53;;
938;SDS011;456;53.584;9.968;2022-12-18T08:21:14;5.63;;;4.87;;
938;SDS011;456;53.584;9.968;2022-12-18T08:23:42;5.50;;;4.93;;
938;SDS011;456;53.584;9.968;2022-12-18T08:26:08;5.07;;;4.57;;
938;SDS011;456;53.584;9.968;2022-12-18T08:28:34;4.90;;;4.50;;
938;SDS011;456;53.584;9.968;2022-12-18T08:31:00;5.30;;;4.80;;
938;SDS011;456;53.584;9.968;2022-12-18T08:33:26;5.40;;;4.90;;
938;SDS011;456;53.584;9.968;2022-12-18T08:35:52;5.33;;;4.83;;
938;SDS011;456;53.584;9.968;2022-12-18T08:38:18;5.00;;;4.50;;
938;SDS011;456;53.584;9.968;2022-12-18T08:40:43;5.40;;;4.90;;
938;SDS011;456;53.584;9.968;2022-12-18T08:43:09;5.80;;;5.33;;
938;SDS011;456;53.584;9.968;2022-12-18T08:45:54;6.20;;;5.50;;
938;SDS011;456;53.584;9.968;2022-12-18T08:48:20;5.00;;;4.50;;
938;SDS011;456;53.584;9.968;2022-12-18T08:50:55;5.73;;;5.13;;
938;SDS011;456;53.584;9.968;2022-12-18T08:53:24;5.73;;;5.23;;
938;SDS011;456;53.584;9.968;2022-12-18T08:55:50;4.97;;;4.57;;
938;SDS011;456;53.584;9.968;2022-12-18T08:58:16;4.90;;;4.60;;
938;SDS011;456;53.584;9.968;2022-12-18T09:00:42;5.60;;;5.00;;
938;SDS011;456;53.584;9.968;2022-12-18T09:03:15;5.20;;;4.77;;
938;SDS011;456;53.584;9.968;2022-12-18T09:05:42;5.07;;;4.67;;
938;SDS011;456;53.584;9.968;2022-12-18T09:08:08;4.93;;;4.53;;
938;SDS011;456;53.584;9.968;2022-12-18T09:10:34;5.27;;;4.77;;
938;SDS011;456;53.584;9.968;2022-12-18T09:13:07;6.30;;;5.40;;
938;SDS011;456;53.584;9.968;2022-12-18T09:15:32;5.90;;;5.50;;
938;SDS011;456;53.584;9.968;2022-12-18T09:17:58;5.40;;;4.90;;
938;SDS011;456;53.584;9.968;2022-12-18T09:20:24;5.60;;;5.10;;
938;SDS011;456;53.584;9.968;2022-12-18T09:22:49;5.23;;;4.70;;
938;SDS011;456;53.584;9.968;2022-12-18T09:25:15;5.10;;;4.70;;
938;SDS011;456;53.584;9.968;2022-12-18T09:27:40;5.60;;;5.10;;
938;SDS011;456;53.584;9.968;2022-12-18T09:30:06;5.47;;;4.93;;
938;SDS011;456;53.584;9.968;2022-12-18T09:32:32;5.07;;;4.67;;
938;SDS011;456;53.584;9.968;2022-12-18T09:34:58;6.07;;;5.47;;
938;SDS011;456;53.584;9.968;2022-12-18T09:37:23;5.10;;;4.60;;
938;SDS011;456;53.584;9.968;2022-12-18T09:39:49;5.53;;;5.07;;
938;SDS011;456;53.584;9.968;2022-12-18T09:42:17;5.50;;;5.00;;
938;SDS011;456;53.584;9.968;2022-12-18T09:44:48;5.37;;;4.97;;
938;SDS011;456;53.584;9.968;2022-12-18T09:50:00;5.60;;;5.10;;
938;SDS011;456;53.584;9.968;2022-12-18T09:52:31;4.40;;;4.00;;
938;SDS011;456;53.584;9.968;2022-12-18T09:57:47;5.50;;;5.00;;
938;SDS011;456;53.584;9.968;2022-12-18T10:00:19;5.13;;;4.63;;
938;SDS011;456;53.584;9.968;2022-12-18T10:02:46;5.10;;;4.70;;
938;SDS011;456;53.584;9.968;2022-12-18T10:05:16;5.00;;;4.60;;
938;SDS011;456;53.584;9.968;2022-12-18T10:12:53;5.63;;;5.13;;
938;SDS011;456;53.584;9.968;2022-12-18T10:21:25;5.63;;;4.80;;
938;SDS011;456;53.584;9.968;2022-12-18T10:26:52;5.20;;;4.73;;
938;SDS011;456;53.584;9.968;2022-12-18T10:29:22;5.83;;;5.23;;
938;SDS011;456;53.584;9.968;2022-12-18T10:31:49;5.23;;;4.73;;
938;SDS011;456;53.584;9.968;2022-12-18T10:34:15;4.60;;;4.20;;
938;SDS011;456;53.584;9.968;2022-12-18T10:36:40;4.53;;;4.13;;
938;SDS011;456;53.584;9.968;2022-12-18T10:39:17;5.47;;;4.83;;
938;SDS011;456;53.584;9.968;2022-12-18T10:41:46;5.27;;;4.87;;
938;SDS011;456;53.584;9.968;2022-12-18T10:44:21;5.50;;;4.80;;
938;SDS011;456;53.584;9.968;2022-12-18T10:46:49;5.37;;;4.97;;
938;SDS011;456;53.584;9.968;2022-12-18T10:49:29;5.50;;;5.00;;
938;SDS011;456;53.584;9.968;2022-12-18T10:52:07;5.50;;;4.87;;
938;SDS011;456;53.584;9.968;2022-12-18T10:54:40;5.30;;;4.10;;
938;SDS011;456;53.584;9.968;2022-12-18T10:57:14;5.03;;;4.60;;
938;SDS011;456;53.584;9.968;2022-12-18T10:59:54;4.70;;;4.27;;
938;SDS011;456;53.584;9.968;2022-12-18T11:02:25;4.80;;;4.37;;
938;SDS011;456;53.584;9.968;2022-12-18T11:04:51;4.83;;;4.30;;
938;SDS011;456;53.584;9.968;2022-12-18T11:07:17;4.97;;;4.57;;
938;SDS011;456;53.584;9.968;2022-12-18T11:09:43;5.30;;;4.00;;
938;SDS011;456;53.584;9.968;2022-12-18T11:12:23;5.00;;;4.60;;
938;SDS011;456;53.584;9.968;2022-12-18T11:14:52;4.87;;;4.47;;
938;SDS011;456;53.584;9.968;2022-12-18T11:17:31;4.60;;;4.20;;
938;SDS011;456;53.584;9.968;2022-12-18T11:20:00;6.10;;;4.90;;
938;SDS011;456;53.584;9.968;2022-12-18T11:22:32;4.87;;;4.40;;
938;SDS011;456;53.584;9.968;2022-12-18T11:25:07;4.40;;;4.00;;
938;SDS011;456;53.584;9.968;2022-12-18T11:27:48;4.97;;;3.93;;
938;SDS011;456;53.584;9.968;2022-12-18T11:32:47;7.30;;;4.40;;
938;SDS011;456;53.584;9.968;2022-12-18T11:35:23;5.10;;;4.67;;
938;SDS011;456;53.584;9.968;2022-12-18T11:41:00;4.93;;;4.43;;
938;SDS011;456;53.584;9.968;2022-12-18T11:43:39;4.23;;;3.83;;
938;SDS011;456;53.584;9.968;2022-12-18T11:46:14;4.40;;;4.00;;
938;SDS011;456;53.584;9.968;2022-12-18T11:48:52;4.00;;;3.70;;
938;SDS011;456;53.584;9.968;2022-12-18T11:51:28;4.43;;;4.03;;
938;SDS011;456;53.584;9.968;2022-12-18T11:53:59;4.43;;;4.03;;
938;SDS011;456;53.584;9.968;2022-12-18T11:56:34;4.93;;;4.53;;
938;SDS011;456;53.584;9.968;2022-12-18T12:01:52;3.87;;;3.57;;
938;SDS011;456;53.584;9.968;2022-12-18T12:23:14;4.30;;;3.90;;
938;SDS011;456;53.584;9.968;2022-12-18T12:26:20;4.53;;;3.80;;
938;SDS011;456;53.584;9.968;2022-12-18T12:31:30;3.60;;;3.27;;
938;SDS011;456;53.584;9.968;2022-12-18T12:37:38;3.80;;;3.50;;
938;SDS011;456;53.584;9.968;2022-12-18T12:40:13;4.53;;;3.50;;
938;SDS011;456;53.584;9.968;2022-12-18T12:42:44;4.23;;;3.00;;
938;SDS011;456;53.584;9.968;2022-12-18T12:45:36;4.47;;;3.40;;
938;SDS011;456;53.584;9.968;2022-12-18T12:48:07;4.03;;;3.70;;
938;SDS011;456;53.584;9.968;2022-12-18T12:50:41;3.50;;;3.20;;
938;SDS011;456;53.584;9.968;2022-12-18T12:53:08;3.70;;;3.30;;
938;SDS011;456;53.584;9.968;2022-12-18T12:55:39;4.33;;;3.60;;
938;SDS011;456;53.584;9.968;2022-12-18T12:58:08;4.13;;;3.83;;
938;SDS011;456;53.584;9.968;2022-12-18T13:01:04;4.20;;;3.80;;
938;SDS011;456;53.584;9.968;2022-12-18T13:03:37;3.93;;;3.67;;
938;SDS011;456;53.584;9.968;2022-12-18T13:06:28;3.73;;;3.43;;
938;SDS011;456;53.584;9.968;2022-12-18T13:09:05;4.33;;;3.93;;
938;SDS011;456;53.584;9.968;2022-12-18T13:11:43;3.33;;;3.03;;
938;SDS011;456;53.584;9.968;2022-12-18T13:14:31;4.87;;;3.50;;
938;SDS011;456;53.584;9.968;2022-12-18T13:20:07;4.47;;;3.20;;
938;SDS011;456;53.584;9.968;2022-12-18T13:25:01;3.07;;;2.77;;
938;SDS011;456;53.584;9.968;2022-12-18T13:33:30;3.23;;;2.93;;
938;SDS011;456;53.584;9.968;2022-12-18T13:36:15;3.63;;;2.90;;
938;SDS011;456;53.584;9.968;2022-12-18T13:38:47;3.10;;;2.53;;
938;SDS011;456;53.584;9.968;2022-12-18T13:41:40;3.77;;;2.90;;
938;SDS011;456;53.584;9.968;2022-12-18T13:46:47;3.27;;;2.90;;
938;SDS011;456;53.584;9.968;2022-12-18T13:49:20;4.07;;;3.10;;
938;SDS011;456;53.584;9.968;2022-12-18T13:52:02;3.40;;;2.90;;
938;SDS011;456;53.584;9.968;2022-12-18T13:54:40;3.53;;;3.23;;
938;SDS011;456;53.584;9.968;2022-12-18T14:02:47;3.20;;;2.90;;
938;SDS011;456;53.584;9.968;2022-12-18T14:05:47;3.73;;;3.43;;
938;SDS011;456;53.584;9.968;2022-12-18T14:08:10;4.67;;;3.03;;
938;SDS011;456;53.584;9.968;2022-12-18T14:10:42;3.47;;;3.20;;
938;SDS011;456;53.584;9.968;2022-12-18T14:13:10;3.67;;;3.37;;
938;SDS011;456;53.584;9.968;2022-12-18T14:15:49;3.83;;;3.53;;
938;SDS011;456;53.584;9.968;2022-12-18T14:18:20;3.60;;;3.30;;
938;SDS011;456;53.584;9.968;2022-12-18T14:21:05;4.10;;;3.80;;
938;SDS011;456;53.584;9.968;2022-12-18T14:23:41;3.67;;;3.37;;
938;SDS011;456;53.584;9.968;2022-12-18T14:28:54;3.50;;;3.20;;
938;SDS011;456;53.584;9.968;2022-12-18T14:31:26;4.10;;;3.80;;
938;SDS011;456;53.584;9.968;2022-12-18T14:33:53;4.47;;;4.17;;
938;SDS011;456;53.584;9.968;2022-12-18T14:36:21;4.63;;;4.23;;
938;SDS011;456;53.584;9.968;2022-12-18T14:38:55;4.70;;;4.30;;
938;SDS011;456;53.584;9.968;2022-12-18T14:41:24;4.57;;;4.17;;
938;SDS011;456;53.584;9.968;2022-12-18T14:43:51;4.27;;;3.87;;
938;SDS011;456;53.584;9.968;2022-12-18T14:46:38;4.87;;;4.47;;
938;SDS011;456;53.584;9.968;2022-12-18T14:49:14;5.27;;;4.43;;
938;SDS011;456;53.584;9.968;2022-12-18T14:51:49;4.30;;;3.90;;
938;SDS011;456;53.584;9.968;2022-12-18T14:54:18;5.93;;;4.20;;
938;SDS011;456;53.584;9.968;2022-12-18T14:56:48;5.00;;;4.50;;
938;SDS011;456;53.584;9.968;2022-12-18T14:59:39;5.30;;;4.80;;
938;SDS011;456;53.584;9.968;2022-12-18T15:05:03;4.97;;;4.57;;
938;SDS011;456;53.584;9.968;2022-12-18T15:07:48;5.43;;;4.93;;
938;SDS011;456;53.584;9.968;2022-12-18T15:10:25;4.67;;;4.27;;
938;SDS011;456;53.584;9.968;2022-12-18T15:17:59;4.70;;;4.10;;
938;SDS011;456;53.584;9.968;2022-12-18T15:20:25;5.50;;;5.10;;
938;SDS011;456;53.584;9.968;2022-12-18T15:22:51;5.83;;;5.27;;
938;SDS011;456;53.584;9.968;2022-12-18T15:25:27;5.83;;;5.33;;
938;SDS011;456;53.584;9.968;2022-12-18T15:28:01;5.70;;;4.90;;
938;SDS011;456;53.584;9.968;2022-12-18T15:30:27;6.13;;;5.53;;
938;SDS011;456;53.584;9.968;2022-12-18T15:33:16;5.50;;;4.87;;
938;SDS011;456;53.584;9.968;2022-12-18T15:35:55;6.23;;;5.63;;
938;SDS011;456;53.584;9.968;2022-12-18T15:38:22;5.53;;;5.10;;
938;SDS011;456;53.584;9.968;2022-12-18T15:40:48;6.07;;;5.57;;
938;SDS011;456;53.584;9.968;2022-12-18T15:43:13;6.17;;;5.60;;
938;SDS011;456;53.584;9.968;2022-12-18T15:45:57;6.80;;;6.10;;
938;SDS011;456;53.584;9.968;2022-12-18T15:48:23;6.13;;;5.53;;
938;SDS011;456;53.584;9.968;2022-12-18T15:50:52;7.10;;;6.13;;
938;SDS011;456;53.584;9.968;2022-12-18T15:53:22;6.87;;;6.27;;
938;SDS011;456;53.584;9.968;2022-12-18T15:55:53;7.07;;;6.47;;
938;SDS011;456;53.584;9.968;2022-12-18T15:58:37;8.00;;;7.10;;
938;SDS011;456;53.584;9.968;2022-12-18T16:01:03;7.13;;;6.40;;
938;SDS011;456;53.584;9.968;2022-12-18T16:03:30;7.27;;;6.57;;
938;SDS011;456;53.584;9.968;2022-12-18T16:05:55;7.40;;;6.70;;
938;SDS011;456;53.584;9.968;2022-12-18T16:08:23;6.53;;;5.93;;
938;SDS011;456;53.584;9.968;2022-12-18T16:10:48;7.57;;;6.87;;
938;SDS011;456;53.584;9.968;2022-12-18T16:13:15;7.43;;;6.73;;
938;SDS011;456;53.584;9.968;2022-12-18T16:15:42;8.47;;;6.93;;
938;SDS011;456;53.584;9.968;2022-12-18T16:18:08;8.20;;;7.00;;
938;SDS011;456;53.584;9.968;2022-12-18T16:20:33;7.33;;;6.70;;
938;SDS011;456;53.584;9.968;2022-12-18T16:22:59;8.40;;;7.60;;
938;SDS011;456;53.584;9.968;2022-12-18T16:25:26;8.93;;;8.13;;
938;SDS011;456;53.584;9.968;2022-12-18T16:27:53;8.20;;;7.33;;
938;SDS011;456;53.584;9.968;2022-12-18T16:30:24;7.80;;;7.10;;
938;SDS011;456;53.584;9.968;2022-12-18T16:32:52;8.70;;;7.80;;
938;SDS011;456;53.584;9.968;2022-12-18T16:35:19;7.17;;;6.47;;
938;SDS011;456;53.584;9.968;2022-12-18T16:37:45;8.00;;;7.27;;
938;SDS011;456;53.584;9.968;2022-12-18T16:40:12;8.90;;;7.30;;
938;SDS011;456;53.584;9.968;2022-12-18T16:42:40;8.37;;;7.67;;
938;SDS011;456;53.584;9.968;2022-12-18T16:45:07;9.03;;;8.23;;
938;SDS011;456;53.584;9.968;2022-12-18T16:47:34;8.43;;;7.63;;
938;SDS011;456;53.584;9.968;2022-12-18T16:50:00;8.70;;;7.90;;
938;SDS011;456;53.584;9.968;2022-12-18T16:52:26;9.00;;;8.10;;
938;SDS011;456;53.584;9.968;2022-12-18T16:54:52;8.60;;;7.80;;
938;SDS011;456;53.584;9.968;2022-12-18T16:57:18;9.13;;;8.27;;
938;SDS011;456;53.584;9.968;2022-12-18T16:59:45;9.30;;;8.50;;
938;SDS011;456;53.584;9.968;2022-12-18T17:02:18;8.70;;;7.90;;
938;SDS011;456;53.584;9.968;2022-12-18T17:04:45;10.23;;;8.53;;
938;SDS011;456;53.584;9.968;2022-12-18T17:07:12;9.07;;;8.27;;
938;SDS011;456;53.584;9.968;2022-12-18T17:09:38;8.30;;;7.50;;
938;SDS011;456;53.584;9.968;2022-12-18T17:12:04;9.67;;;8.70;;
938;SDS011;456;53.584;9.968;2022-12-18T17:14:30;8.37;;;7.57;;
938;SDS011;456;53.584;9.968;2022-12-18T17:16:57;8.50;;;7.70;;
938;SDS011;456;53.584;9.968;2022-12-18T17:19:24;8.00;;;7.30;;
938;SDS011;456;53.584;9.968;2022-12-18T17:21:50;9.00;;;8.20;;
938;SDS011;456;53.584;9.968;2022-12-18T17:24:16;8.70;;;7.90;;
938;SDS011;456;53.584;9.968;2022-12-18T17:26:42;8.87;;;7.97;;
938;SDS011;456;53.584;9.968;2022-12-18T17:29:11;9.07;;;8.27;;
938;SDS011;456;53.584;9.968;2022-12-18T17:31:39;9.20;;;8.47;;
938;SDS011;456;53.584;9.968;2022-12-18T17:34:05;8.17;;;7.47;;
938;SDS011;456;53.584;9.968;2022-12-18T17:36:30;8.93;;;7.77;;
938;SDS011;456;53.584;9.968;2022-12-18T17:38:57;9.53;;;8.63;;
938;SDS011;456;53.584;9.968;2022-12-18T17:41:25;9.57;;;8.73;;
938;SDS011;456;53.584;9.968;2022-12-18T17:43:53;8.53;;;7.80;;
938;SDS011;456;53.584;9.968;2022-12-18T17:46:19;9.17;;;8.37;;
938;SDS011;456;53.584;9.968;2022-12-18T17:48:45;8.83;;;8.03;;
938;SDS011;456;53.584;9.968;2022-12-18T17:51:11;9.20;;;8.40;;
938;SDS011;456;53.584;9.968;2022-12-18T17:53:37;9.93;;;9.00;;
938;SDS011;456;53.584;9.968;2022-12-18T17:56:03;8.97;;;8.23;;